Time,TemperatureF,DewpointF,PressureIn,WindDirection,WindDirectionDegrees,WindSpeedMPH,WindSpeedGustMPH,Humidity,HourlyPrecipIn,Conditions,Clouds,dailyrainin,SoftwareType,DateUTC
2013-06-28 00:00:00,60.7,59.0,29.67,SE,146,0.0,0.0,94,0.00,,,0.04,Wunderground v.1.15,2013-06-28 05:00:00,
2013-06-28 00:05:00,60.7,59.0,29.67,SE,146,0.0,0.0,94,0.00,,,0.04,Wunderground v.1.15,2013-06-28 05:05:00,
2013-06-28 00:10:00,60.5,58.8,29.67,SE,146,0.0,0.0,94,0.00,,,0.04,Wunderground v.1.15,2013-06-28 05:10:00,
2013-06-28 00:20:00,60.4,58.7,29.67,SE,146,0.0,0.0,94,0.00,,,0.00,Wunderground v.1.15,2013-06-28 05:20:00,
2013-06-28 00:25:00,60.4,59.0,29.67,SE,146,0.0,0.0,95,0.00,,,0.00,Wunderground v.1.15,2013-06-28 05:25:00,
2013-06-28 00:30:00,60.1,58.4,29.67,SE,146,0.0,0.0,94,0.00,,,0.00,Wunderground v.1.15,2013-06-28 05:30:00,
2013-06-28 00:40:00,59.7,58.0,29.67,SE,146,0.0,0.0,94,0.00,,,0.00,Wunderground v.1.15,2013-06-28 05:40:00,
2013-06-28 00:50:00,59.1,57.4,29.67,SE,146,0.0,0.0,94,0.00,,,0.00,Wunderground v.1.15,2013-06-28 05:50:00,
2013-06-28 01:00:00,59.0,57.6,29.66,SE,146,0.0,0.0,95,0.00,,,0.00,Wunderground v.1.15,2013-06-28 06:00:00,
2013-06-28 01:10:00,59.0,57.6,29.66,SE,146,0.0,0.0,95,0.00,,,0.00,Wunderground v.1.15,2013-06-28 06:10:00,
2013-06-28 01:20:00,58.9,57.5,29.66,SE,146,0.0,0.0,95,0.00,,,0.00,Wunderground v.1.15,2013-06-28 06:20:00,
2013-06-28 01:29:00,58.7,57.3,29.66,SE,146,0.0,0.0,95,0.00,,,0.00,Wunderground v.1.15,2013-06-28 06:29:00,
2013-06-28 01:35:00,58.7,57.3,29.66,SE,146,0.0,0.0,95,0.00,,,0.00,Wunderground v.1.15,2013-06-28 06:35:00,
2013-06-28 01:40:00,58.6,57.2,29.66,SE,146,0.0,0.0,95,0.00,,,0.00,Wunderground v.1.15,2013-06-28 06:40:00,
2013-06-28 01:50:00,58.5,57.1,29.66,SE,146,0.0,0.0,95,0.00,,,0.00,Wunderground v.1.15,2013-06-28 06:50:00,
2013-06-28 01:59:00,59.0,57.9,29.65,SE,146,0.0,0.0,96,0.00,,,0.00,Wunderground v.1.15,2013-06-28 06:59:00,
2013-06-28 02:05:00,59.0,57.9,29.65,SE,146,0.0,0.0,96,0.00,,,0.00,Wunderground v.1.15,2013-06-28 07:05:00,
2013-06-28 02:10:00,59.0,57.9,29.65,SE,146,0.0,0.0,96,0.00,,,0.00,Wunderground v.1.15,2013-06-28 07:10:00,
2013-06-28 02:20:00,59.1,58.0,29.65,SE,146,0.0,0.0,96,0.00,,,0.00,Wunderground v.1.15,2013-06-28 07:20:00,
2013-06-28 02:25:00,59.2,58.1,29.65,SE,146,0.0,0.0,96,0.00,,,0.00,Wunderground v.1.15,2013-06-28 07:25:00,
2013-06-28 02:30:00,59.1,58.0,29.65,SE,146,0.0,0.0,96,0.00,,,0.00,Wunderground v.1.15,2013-06-28 07:30:00,
2013-06-28 02:40:00,59.0,57.9,29.65,SE,146,0.0,0.0,96,0.00,,,0.00,Wunderground v.1.15,2013-06-28 07:40:00,
2013-06-28 02:49:00,59.4,58.3,29.65,SE,146,0.0,0.0,96,0.00,,,0.00,Wunderground v.1.15,2013-06-28 07:49:00,
2013-06-28 03:00:00,59.7,58.6,29.65,SE,146,0.0,0.0,96,0.00,,,0.00,Wunderground v.1.15,2013-06-28 08:00:00,
2013-06-28 03:10:00,59.8,58.7,29.65,SE,146,0.0,0.0,96,0.00,,,0.01,Wunderground v.1.15,2013-06-28 08:10:00,
2013-06-28 03:20:00,60.0,58.9,29.64,SE,146,0.0,0.0,96,0.00,,,0.01,Wunderground v.1.15,2013-06-28 08:20:00,
2013-06-28 03:30:00,60.5,59.4,29.64,SE,146,0.0,0.0,96,0.00,,,0.01,Wunderground v.1.15,2013-06-28 08:30:00,
2013-06-28 03:40:00,61.0,59.9,29.64,SE,146,0.0,0.0,96,0.00,,,0.01,Wunderground v.1.15,2013-06-28 08:40:00,
2013-06-28 03:49:00,60.9,59.8,29.64,SE,146,0.0,0.0,96,0.00,,,0.01,Wunderground v.1.15,2013-06-28 08:49:00,
2013-06-28 04:00:00,60.9,59.8,29.64,SE,146,0.0,0.0,96,0.00,,,0.01,Wunderground v.1.15,2013-06-28 09:00:00,
2013-06-28 04:10:00,60.9,59.8,29.64,SE,146,0.0,0.0,96,0.00,,,0.01,Wunderground v.1.15,2013-06-28 09:10:00,
2013-06-28 04:19:00,60.8,59.7,29.64,SE,146,0.0,0.0,96,0.00,,,0.01,Wunderground v.1.15,2013-06-28 09:19:00,
2013-06-28 04:30:00,60.6,59.5,29.64,SE,146,0.0,0.0,96,0.00,,,0.01,Wunderground v.1.15,2013-06-28 09:30:00,
2013-06-28 04:35:00,60.4,59.3,29.64,SE,146,0.0,0.0,96,0.00,,,0.01,Wunderground v.1.15,2013-06-28 09:35:00,
2013-06-28 04:40:00,60.2,59.1,29.64,SE,146,0.0,0.0,96,0.00,,,0.01,Wunderground v.1.15,2013-06-28 09:40:00,
2013-06-28 04:49:00,59.6,58.5,29.64,SE,146,0.0,0.0,96,0.00,,,0.01,Wunderground v.1.15,2013-06-28 09:49:00,
2013-06-28 04:54:00,59.3,58.2,29.64,SE,146,0.0,0.0,96,0.00,,,0.01,Wunderground v.1.15,2013-06-28 09:54:00,
2013-06-28 04:59:00,59.3,58.2,29.64,SE,146,0.0,0.0,96,0.00,,,0.01,Wunderground v.1.15,2013-06-28 09:59:00,
2013-06-28 05:10:00,59.0,57.9,29.64,SE,146,0.0,0.0,96,0.00,,,0.01,Wunderground v.1.15,2013-06-28 10:10:00,
2013-06-28 05:20:00,59.0,57.9,29.64,North,355,0.0,0.0,96,0.00,,,0.01,Wunderground v.1.15,2013-06-28 10:20:00,
2013-06-28 05:29:00,58.9,57.8,29.64,North,355,0.0,0.0,96,0.00,,,0.01,Wunderground v.1.15,2013-06-28 10:29:00,
2013-06-28 05:39:00,58.6,57.5,29.64,North,355,0.0,0.0,96,0.00,,,0.01,Wunderground v.1.15,2013-06-28 10:39:00,
2013-06-28 05:50:00,58.6,57.5,29.64,NNE,22,0.0,0.0,96,0.00,,,0.01,Wunderground v.1.15,2013-06-28 10:50:00,
2013-06-28 05:59:00,58.8,58.0,29.64,NNE,22,0.0,0.0,97,0.00,,,0.01,Wunderground v.1.15,2013-06-28 10:59:00,
2013-06-28 06:09:00,59.5,58.6,29.64,NNE,12,0.0,0.0,97,0.00,,,0.01,Wunderground v.1.15,2013-06-28 11:09:00,
2013-06-28 06:19:00,60.3,59.4,29.64,NNE,12,0.0,0.0,97,0.00,,,0.01,Wunderground v.1.15,2013-06-28 11:19:00,
2013-06-28 06:30:00,60.9,60.0,29.64,NNE,12,0.0,0.0,97,0.00,,,0.01,Wunderground v.1.15,2013-06-28 11:30:00,
2013-06-28 06:39:00,61.6,60.7,29.64,North,360,0.0,0.0,97,0.00,,,0.01,Wunderground v.1.15,2013-06-28 11:39:00,
2013-06-28 06:49:00,62.3,61.4,29.64,North,355,0.0,0.0,97,0.00,,,0.01,Wunderground v.1.15,2013-06-28 11:49:00,
2013-06-28 06:59:00,62.9,62.0,29.64,NW,314,0.0,0.0,97,0.00,,,0.01,Wunderground v.1.15,2013-06-28 11:59:00,
2013-06-28 07:09:00,63.7,62.8,29.64,NW,314,0.0,0.0,97,0.00,,,0.01,Wunderground v.1.15,2013-06-28 12:09:00,
2013-06-28 07:19:00,64.4,62.9,29.63,NW,321,0.0,0.0,95,0.00,,,0.01,Wunderground v.1.15,2013-06-28 12:19:00,
2013-06-28 07:24:00,64.9,63.4,29.63,NW,321,0.0,0.0,95,0.00,,,0.01,Wunderground v.1.15,2013-06-28 12:24:00,
2013-06-28 07:29:00,65.4,63.3,29.63,NW,317,0.0,0.0,93,0.00,,,0.01,Wunderground v.1.15,2013-06-28 12:29:00,
2013-06-28 07:39:00,66.4,63.4,29.63,SSW,194,0.0,0.0,90,0.00,,,0.01,Wunderground v.1.15,2013-06-28 12:39:00,
2013-06-28 07:49:00,67.5,63.2,29.63,ESE,107,0.0,1.0,86,0.00,,,0.01,Wunderground v.1.15,2013-06-28 12:49:00,
2013-06-28 07:59:00,68.5,63.8,29.62,NE,37,0.0,1.0,85,0.00,,,0.01,Wunderground v.1.15,2013-06-28 12:59:00,
2013-06-28 08:09:00,69.2,63.5,29.62,NW,312,0.0,0.0,82,0.00,,,0.01,Wunderground v.1.15,2013-06-28 13:09:00,
2013-06-28 08:14:00,69.7,64.0,29.61,NNE,21,0.0,0.0,82,0.00,,,0.01,Wunderground v.1.15,2013-06-28 13:14:00,
2013-06-28 08:19:00,70.3,64.2,29.61,East,83,0.0,2.0,81,0.00,,,0.01,Wunderground v.1.15,2013-06-28 13:19:00,
2013-06-28 08:29:00,71.2,64.4,29.61,NNE,21,0.0,0.0,79,0.00,,,0.01,Wunderground v.1.15,2013-06-28 13:29:00,
2013-06-28 08:39:00,71.8,64.6,29.61,NNE,33,0.0,0.0,78,0.00,,,0.01,Wunderground v.1.15,2013-06-28 13:39:00,
2013-06-28 08:49:00,72.4,64.0,29.61,NW,312,0.0,0.0,75,0.00,,,0.01,Wunderground v.1.15,2013-06-28 13:49:00,
2013-06-28 08:59:00,72.6,64.6,29.61,WNW,299,0.0,0.0,76,0.00,,,0.01,Wunderground v.1.15,2013-06-28 13:59:00,
2013-06-28 09:09:00,73.3,64.9,29.61,West,266,1.0,1.0,75,0.00,,,0.01,Wunderground v.1.15,2013-06-28 14:09:00,
2013-06-28 09:19:00,73.1,64.3,29.61,West,277,0.0,0.0,74,0.00,,,0.01,Wunderground v.1.15,2013-06-28 14:19:00,
2013-06-28 09:29:00,72.4,63.6,29.61,North,5,0.0,0.0,74,0.00,,,0.01,Wunderground v.1.15,2013-06-28 14:29:00,
2013-06-28 09:34:00,71.7,63.4,29.61,North,9,0.0,0.0,75,0.00,,,0.01,Wunderground v.1.15,2013-06-28 14:34:00,
2013-06-28 09:39:00,71.6,64.4,29.61,SW,227,0.0,0.0,78,0.00,,,0.01,Wunderground v.1.15,2013-06-28 14:39:00,
2013-06-28 09:49:00,71.1,63.9,29.60,NE,40,0.0,0.0,78,0.00,,,0.01,Wunderground v.1.15,2013-06-28 14:49:00,
2013-06-28 09:59:00,69.5,62.7,29.60,ENE,76,0.0,0.0,79,0.00,,,0.01,Wunderground v.1.15,2013-06-28 14:59:00,
2013-06-28 10:09:00,68.6,62.2,29.61,WNW,284,0.0,0.0,80,0.00,,,0.01,Wunderground v.1.15,2013-06-28 15:09:00,
2013-06-28 10:19:00,68.4,63.0,29.60,WNW,283,0.0,0.0,83,0.00,,,0.01,Wunderground v.1.15,2013-06-28 15:19:00,